Time;durP1;ratioP1;P1;durP2;ratioP2;P2;SDS_P1;SDS_P2;PMS_P1;PMS_P2;Temp;Humidity;BMP_temperature;BMP_pressure;BME280_temperature;BME280_humidity;BME280_pressure;Samples;Min_cycle;Max_cycle;Signal;HPM_P1;HPM_P2
2021/07/22 00:00:09;;;;;;;17.30;8.95;;;15.00;96.40;;;;;;6217491;23;19997;-77
2021/07/22 00:02:35;;;;;;;15.38;8.55;;;14.90;96.50;;;;;;6219954;23;20024;-78
2021/07/22 00:05:05;;;;;;;14.57;8.52;;;14.90;96.50;;;;;;6193581;23;20012;-77
2021/07/22 00:07:31;;;;;;;17.38;8.93;;;14.80;96.70;;;;;;6219253;23;20005;-80
2021/07/22 00:09:56;;;;;;;15.82;9.32;;;14.70;96.80;;;;;;6193508;23;20009;-78
2021/07/22 00:12:22;;;;;;;18.75;9.35;;;14.60;96.90;;;;;;6193002;23;20012;-79
2021/07/22 00:14:48;;;;;;;16.73;9.30;;;14.60;97.00;;;;;;6218224;23;20307;-78
2021/07/22 00:17:13;;;;;;;13.57;8.27;;;14.70;97.10;;;;;;6219707;23;20244;-79
2021/07/22 00:19:39;;;;;;;16.65;9.63;;;14.60;97.00;;;;;;6219615;23;20364;-79
2021/07/22 00:22:05;;;;;;;18.70;8.55;;;14.70;97.00;;;;;;6193097;23;20005;-78
2021/07/22 00:24:30;;;;;;;13.75;8.23;;;14.70;97.00;;;;;;6219640;23;20391;-78
2021/07/22 00:26:56;;;;;;;16.90;8.95;;;14.80;96.90;;;;;;6187866;23;20262;-79
2021/07/22 00:29:22;;;;;;;17.73;9.18;;;14.90;96.70;;;;;;6217620;23;20011;-79
2021/07/22 00:31:48;;;;;;;16.83;9.15;;;14.90;96.60;;;;;;6218303;23;20000;-79
2021/07/22 00:34:13;;;;;;;14.90;8.98;;;15.00;96.40;;;;;;6219486;23;19996;-79
2021/07/22 00:36:39;;;;;;;15.43;8.45;;;15.10;96.30;;;;;;6219064;23;20064;-79
2021/07/22 00:39:05;;;;;;;14.23;8.98;;;15.20;96.40;;;;;;6219711;23;19997;-79
2021/07/22 00:41:37;;;;;;;18.38;8.77;;;15.20;96.30;;;;;;6219724;23;19997;-79
2021/07/22 00:44:03;;;;;;;14.48;8.45;;;15.30;96.10;;;;;;6219599;23;20084;-79
2021/07/22 00:46:28;;;;;;;13.85;8.30;;;15.30;96.10;;;;;;6218028;23;20036;-79
2021/07/22 00:48:54;;;;;;;14.82;9.07;;;15.40;95.90;;;;;;6219117;23;20001;-79
2021/07/22 00:51:20;;;;;;;16.33;9.05;;;15.40;95.80;;;;;;6219039;23;20050;-79
2021/07/22 00:53:45;;;;;;;16.13;8.27;;;15.40;95.90;;;;;;6219493;23;20001;-79
2021/07/22 00:56:11;;;;;;;15.77;9.38;;;15.40;95.90;;;;;;6219020;23;20236;-79
2021/07/22 00:58:37;;;;;;;16.08;8.48;;;15.40;96.00;;;;;;6192694;23;20004;-78
2021/07/22 01:01:02;;;;;;;14.75;8.43;;;15.40;95.60;;;;;;6217153;23;20004;-79
2021/07/22 01:03:28;;;;;;;14.85;8.63;;;15.40;95.60;;;;;;6192452;23;20005;-79
2021/07/22 01:05:53;;;;;;;13.45;8.27;;;15.40;95.60;;;;;;6218555;23;20135;-79
2021/07/22 01:08:19;;;;;;;13.88;8.02;;;15.40;95.70;;;;;;6219307;23;20008;-78
2021/07/22 01:10:44;;;;;;;16.67;8.63;;;15.40;95.60;;;;;;6219041;23;20004;-79
2021/07/22 01:13:10;;;;;;;13.65;8.50;;;15.30;95.80;;;;;;6218921;23;20334;-78
2021/07/22 01:15:36;;;;;;;17.95;8.80;;;15.20;96.00;;;;;;6217559;23;20008;-78
2021/07/22 01:18:01;;;;;;;12.80;8.50;;;15.10;96.20;;;;;;6219357;23;19996;-79
2021/07/22 01:20:28;;;;;;;14.68;8.50;;;15.10;96.20;;;;;;6218740;23;20076;-79
2021/07/22 01:22:55;;;;;;;17.20;9.13;;;15.10;96.40;;;;;;6192158;23;20013;-79
2021/07/22 01:25:22;;;;;;;17.20;8.52;;;15.10;96.20;;;;;;6218791;23;20287;-79
2021/07/22 01:27:49;;;;;;;15.57;9.48;;;15.00;96.20;;;;;;6192622;23;20275;-79
2021/07/22 01:30:15;;;;;;;14.52;8.73;;;15.00;96.30;;;;;;6215486;23;20016;-79
2021/07/22 01:32:42;;;;;;;15.27;8.73;;;15.00;96.30;;;;;;6218905;23;20028;-79
2021/07/22 01:35:09;;;;;;;15.35;8.80;;;14.90;96.50;;;;;;6191711;23;20011;-78
2021/07/22 01:37:37;;;;;;;15.90;9.13;;;14.90;96.50;;;;;;6192824;23;20461;-78
2021/07/22 01:40:03;;;;;;;15.85;9.82;;;14.90;96.50;;;;;;6218864;23;20318;-78
2021/07/22 01:42:31;;;;;;;12.68;8.05;;;14.80;96.70;;;;;;6218218;23;20008;-79
2021/07/22 01:44:56;;;;;;;15.73;9.50;;;14.80;96.80;;;;;;6217189;23;20023;-78
2021/07/22 01:47:22;;;;;;;16.20;9.10;;;14.60;96.80;;;;;;6219022;23;20266;-78
2021/07/22 01:49:48;;;;;;;15.57;9.07;;;14.50;96.90;;;;;;6218707;23;20005;-78
2021/07/22 01:52:13;;;;;;;15.95;9.07;;;14.40;96.90;;;;;;6192062;23;20012;-78
2021/07/22 01:54:40;;;;;;;17.90;9.75;;;14.40;97.20;;;;;;6219084;23;20007;-78
2021/07/22 01:57:05;;;;;;;17.02;9.90;;;14.20;97.30;;;;;;6218287;23;19997;-79
2021/07/22 01:59:38;;;;;;;19.00;9.20;;;14.20;97.40;;;;;;6217397;23;20111;-79
2021/07/22 02:02:10;;;;;;;16.67;9.00;;;14.10;97.50;;;;;;6191871;23;20008;-78
2021/07/22 02:04:38;;;;;;;14.27;9.40;;;14.10;97.50;;;;;;6192180;23;20460;-78
2021/07/22 02:07:04;;;;;;;15.85;8.57;;;14.00;97.40;;;;;;6192345;23;20004;-78
2021/07/22 02:09:29;;;;;;;16.42;9.27;;;13.90;97.60;;;;;;6192444;23;20016;-78
2021/07/22 02:11:58;;;;;;;17.95;9.02;;;13.90;97.70;;;;;;6218382;23;20004;-79
2021/07/22 02:14:25;;;;;;;15.57;8.75;;;13.90;97.70;;;;;;6217664;23;20080;-78
2021/07/22 02:16:51;;;;;;;15.23;9.23;;;13.90;97.60;;;;;;6218443;23;20374;-79
2021/07/22 02:19:17;;;;;;;16.65;9.63;;;13.90;97.80;;;;;;6218590;23;20001;-78
2021/07/22 02:21:43;;;;;;;15.13;9.50;;;13.80;97.80;;;;;;6218259;23;20012;-78
2021/07/22 02:24:10;;;;;;;14.13;9.30;;;13.80;97.80;;;;;;6192392;23;20282;-79
2021/07/22 02:26:37;;;;;;;15.60;9.30;;;13.70;97.80;;;;;;6214428;23;20013;-79
2021/07/22 02:29:03;;;;;;;18.15;9.52;;;13.80;97.90;;;;;;6218084;23;20062;-79
2021/07/22 02:31:29;;;;;;;15.82;9.82;;;13.70;97.80;;;;;;6217934;23;20004;-81
2021/07/22 02:33:54;;;;;;;16.92;9.50;;;13.70;97.80;;;;;;6219532;23;20024;-78
2021/07/22 02:36:20;;;;;;;14.82;9.57;;;13.60;97.80;;;;;;6219462;23;20023;-79
2021/07/22 02:38:46;;;;;;;17.02;9.90;;;13.50;97.90;;;;;;6220630;23;20032;-79
2021/07/22 02:41:11;;;;;;;14.48;9.63;;;13.50;98.00;;;;;;6220465;23;20005;-79
2021/07/22 02:43:37;;;;;;;15.48;9.82;;;13.40;98.00;;;;;;6220611;23;20011;-79
2021/07/22 02:46:10;;;;;;;16.65;9.90;;;13.30;98.00;;;;;;6218238;23;20023;-79
2021/07/22 02:48:36;;;;;;;18.35;10.35;;;13.30;98.00;;;;;;6194164;23;20009;-78
2021/07/22 02:51:06;;;;;;;14.40;9.88;;;13.30;98.00;;;;;;6220294;23;20299;-79
2021/07/22 02:53:32;;;;;;;20.95;10.38;;;13.30;98.00;;;;;;6220017;23;20051;-78
2021/07/22 02:55:59;;;;;;;14.75;9.25;;;13.30;98.00;;;;;;6194153;23;20012;-79
2021/07/22 02:58:25;;;;;;;15.73;9.80;;;13.30;98.00;;;;;;6193592;23;20370;-78
2021/07/22 03:00:51;;;;;;;19.17;9.88;;;13.20;98.00;;;;;;6192126;23;20008;-78
2021/07/22 03:03:16;;;;;;;13.75;9.32;;;13.10;98.00;;;;;;6220681;23;20000;-79
2021/07/22 03:05:42;;;;;;;15.93;10.02;;;13.10;98.00;;;;;;6219512;23;20011;-80
2021/07/22 03:08:08;;;;;;;23.98;10.23;;;13.00;98.00;;;;;;6194335;23;20047;-79
2021/07/22 03:10:33;;;;;;;16.35;9.65;;;13.00;98.00;;;;;;6220526;23;20027;-79
2021/07/22 03:12:59;;;;;;;24.92;11.10;;;13.10;98.00;;;;;;6194358;23;20359;-79
2021/07/22 03:15:25;;;;;;;14.70;9.85;;;13.10;98.00;;;;;;6218532;23;20098;-78
2021/07/22 03:17:53;;;;;;;15.60;9.65;;;13.10;98.00;;;;;;6220403;23;20373;-79
2021/07/22 03:20:19;;;;;;;15.15;9.85;;;13.20;98.00;;;;;;6220052;23;20051;-79
2021/07/22 03:22:45;;;;;;;17.55;10.32;;;13.20;98.00;;;;;;6220313;23;20310;-79
2021/07/22 03:25:11;;;;;;;21.05;11.35;;;13.20;98.00;;;;;;6220141;23;20051;-78
2021/07/22 03:27:37;;;;;;;15.50;9.57;;;13.20;98.00;;;;;;6220406;23;20063;-79
2021/07/22 03:30:02;;;;;;;16.13;10.07;;;13.30;98.00;;;;;;6217603;23;20020;-79
2021/07/22 03:32:31;;;;;;;19.05;10.10;;;13.30;98.00;;;;;;6219167;23;20011;-79
2021/07/22 03:34:57;;;;;;;16.27;9.77;;;13.30;98.00;;;;;;6219671;23;20378;-79
2021/07/22 03:37:22;;;;;;;15.52;9.85;;;13.40;98.00;;;;;;6219899;23;20001;-79
2021/07/22 03:39:48;;;;;;;18.75;9.65;;;13.40;97.90;;;;;;6220192;23;20001;-79
2021/07/22 03:42:14;;;;;;;17.33;9.70;;;13.40;98.00;;;;;;6219295;23;20016;-79
2021/07/22 03:44:39;;;;;;;19.60;11.15;;;13.40;98.00;;;;;;6191624;23;20039;-79
2021/07/22 03:47:05;;;;;;;14.00;9.10;;;13.30;98.00;;;;;;6220124;23;20012;-79
2021/07/22 03:49:31;;;;;;;19.27;9.90;;;13.30;98.00;;;;;;6219993;23;20008;-78
2021/07/22 03:51:57;;;;;;;15.95;9.75;;;13.30;98.00;;;;;;6219567;23;20274;-79
2021/07/22 03:54:23;;;;;;;18.10;9.15;;;13.30;98.00;;;;;;6219912;23;20004;-79
2021/07/22 03:56:49;;;;;;;21.27;10.20;;;13.30;98.00;;;;;;6219778;23;20005;-78
2021/07/22 03:59:15;;;;;;;15.55;9.18;;;13.30;98.00;;;;;;6219488;23;19997;-78
2021/07/22 04:01:41;;;;;;;15.50;9.02;;;13.30;98.00;;;;;;6217588;23;20059;-79
2021/07/22 04:04:07;;;;;;;17.05;9.27;;;13.30;98.00;;;;;;6193627;23;20004;-79
2021/07/22 04:06:36;;;;;;;14.50;9.75;;;13.30;98.00;;;;;;6219503;23;20007;-78
2021/07/22 04:09:03;;;;;;;14.15;9.40;;;13.40;98.00;;;;;;6219724;23;20327;-78
2021/07/22 04:11:29;;;;;;;16.52;9.80;;;13.30;98.00;;;;;;6218813;23;20011;-78
2021/07/22 04:13:55;;;;;;;14.82;8.95;;;13.40;98.00;;;;;;6220299;23;19997;-79
2021/07/22 04:16:21;;;;;;;16.60;9.38;;;13.50;97.90;;;;;;6191103;23;20035;-79
2021/07/22 04:18:46;;;;;;;14.25;8.85;;;13.50;97.90;;;;;;6218696;23;20064;-78
2021/07/22 04:21:12;;;;;;;13.32;8.32;;;13.40;97.90;;;;;;6218014;23;20322;-78
2021/07/22 04:23:38;;;;;;;18.45;9.07;;;13.50;97.90;;;;;;6218213;23;20043;-79
2021/07/22 04:26:04;;;;;;;17.77;9.27;;;13.50;97.90;;;;;;6192236;23;20366;-78
2021/07/22 04:28:30;;;;;;;15.00;9.50;;;13.50;98.00;;;;;;6218856;23;20007;-79
2021/07/22 04:30:55;;;;;;;15.98;9.40;;;13.40;98.00;;;;;;6212930;23;20018;-79
2021/07/22 04:33:21;;;;;;;15.48;8.90;;;13.50;98.00;;;;;;6191375;23;20005;-79
2021/07/22 04:35:47;;;;;;;13.63;8.80;;;13.50;98.00;;;;;;6216119;23;20004;-79
2021/07/22 04:38:12;;;;;;;19.35;9.27;;;13.50;98.00;;;;;;6218463;23;20007;-78
2021/07/22 04:40:38;;;;;;;13.65;9.07;;;13.50;98.00;;;;;;6219048;23;20351;-78
2021/07/22 04:43:04;;;;;;;17.27;9.90;;;13.60;98.00;;;;;;6219559;23;20062;-79
2021/07/22 04:45:33;;;;;;;13.88;8.32;;;13.60;98.00;;;;;;6217344;23;20013;-79
2021/07/22 04:48:02;;;;;;;15.80;9.23;;;13.60;98.00;;;;;;6219375;23;20068;-79
2021/07/22 04:50:28;;;;;;;15.98;9.55;;;13.70;98.00;;;;;;6219141;23;20005;-79
2021/07/22 04:52:54;;;;;;;12.82;8.43;;;13.70;98.00;;;;;;6218775;23;20362;-79
2021/07/22 04:55:19;;;;;;;13.50;8.13;;;13.80;98.00;;;;;;6219068;23;20008;-79
2021/07/22 04:57:45;;;;;;;18.40;9.10;;;13.80;98.00;;;;;;6219340;23;20043;-79
2021/07/22 05:00:11;;;;;;;14.63;9.23;;;13.90;98.00;;;;;;6216632;23;20004;-78
2021/07/22 05:02:37;;;;;;;17.90;8.90;;;14.00;97.80;;;;;;6218315;23;20005;-78
2021/07/22 05:05:02;;;;;;;14.23;8.35;;;14.00;97.80;;;;;;6218525;23;20073;-79
2021/07/22 05:07:28;;;;;;;14.55;8.73;;;14.20;97.80;;;;;;6218063;23;20005;-78
2021/07/22 05:09:56;;;;;;;16.25;8.82;;;14.20;97.80;;;;;;6192283;23;20095;-78
2021/07/22 05:12:22;;;;;;;12.63;8.35;;;14.30;97.80;;;;;;6218832;23;20011;-79
2021/07/22 05:14:47;;;;;;;14.15;8.77;;;14.40;97.90;;;;;;6217160;23;20075;-79
2021/07/22 05:17:13;;;;;;;15.20;9.18;;;14.50;97.80;;;;;;6219135;23;20000;-79
2021/07/22 05:19:39;;;;;;;13.60;8.25;;;14.50;97.60;;;;;;6218643;23;19996;-79
2021/07/22 05:22:05;;;;;;;14.10;8.43;;;14.50;97.50;;;;;;6219589;23;20075;-79
2021/07/22 05:24:30;;;;;;;13.15;8.23;;;14.60;97.60;;;;;;6219108;23;20079;-79
2021/07/22 05:26:56;;;;;;;16.40;9.30;;;14.70;97.60;;;;;;6219343;23;20108;-79
2021/07/22 05:29:22;;;;;;;16.98;9.07;;;14.90;97.50;;;;;;6218381;23;20047;-78
2021/07/22 05:31:47;;;;;;;15.20;8.68;;;15.00;97.20;;;;;;6218706;23;20001;-78
2021/07/22 05:34:13;;;;;;;11.52;7.35;;;15.20;97.10;;;;;;6193142;23;20008;-79
2021/07/22 05:36:40;;;;;;;14.05;8.68;;;15.40;96.60;;;;;;6192846;23;20001;-78
2021/07/22 05:39:06;;;;;;;17.45;9.13;;;15.70;96.50;;;;;;6218814;23;20011;-78
2021/07/22 05:41:31;;;;;;;14.75;8.70;;;15.90;96.80;;;;;;6219329;23;20072;-79
2021/07/22 05:43:57;;;;;;;11.70;8.27;;;15.90;96.00;;;;;;6219415;23;20001;-78
2021/07/22 05:46:25;;;;;;;14.02;8.10;;;16.10;95.80;;;;;;6190338;23;20019;-79
2021/07/22 05:48:51;;;;;;;15.88;9.48;;;16.20;95.80;;;;;;6191770;23;20005;-78
2021/07/22 05:51:17;;;;;;;20.98;9.20;;;16.40;95.20;;;;;;6217888;23;20358;-78
2021/07/22 05:53:42;;;;;;;15.38;8.63;;;16.50;94.90;;;;;;6218037;23;20084;-78
2021/07/22 05:56:11;;;;;;;14.38;8.27;;;16.70;94.70;;;;;;6217999;23;20021;-78
2021/07/22 05:58:36;;;;;;;16.98;9.40;;;17.00;94.20;;;;;;6218166;23;20000;-80
2021/07/22 06:01:05;;;;;;;16.73;9.02;;;17.20;93.70;;;;;;6216548;23;20000;-80
2021/07/22 06:03:32;;;;;;;17.65;10.02;;;17.40;92.70;;;;;;6218020;23;20001;-80
2021/07/22 06:05:57;;;;;;;16.27;9.65;;;17.50;92.20;;;;;;6217997;23;20012;-79
2021/07/22 06:08:23;;;;;;;19.25;10.15;;;17.50;92.30;;;;;;6217658;23;20005;-79
2021/07/22 06:10:49;;;;;;;18.35;9.75;;;17.60;92.20;;;;;;6217933;23;20013;-79
2021/07/22 06:13:15;;;;;;;14.73;8.95;;;17.70;92.20;;;;;;6217839;23;20009;-79
2021/07/22 06:15:41;;;;;;;17.15;9.93;;;17.70;91.80;;;;;;6216447;23;20363;-79
2021/07/22 06:18:06;;;;;;;14.43;9.05;;;17.70;92.00;;;;;;6217771;23;20007;-79
2021/07/22 06:20:32;;;;;;;13.75;8.48;;;17.70;91.80;;;;;;6217809;23;20001;-79
2021/07/22 06:23:00;;;;;;;15.55;9.80;;;17.80;92.70;;;;;;6217715;23;20001;-79
2021/07/22 06:25:26;;;;;;;14.20;8.90;;;17.90;92.20;;;;;;6191430;23;20036;-79
2021/07/22 06:27:52;;;;;;;15.88;9.68;;;17.80;92.30;;;;;;6217858;23;20266;-79
2021/07/22 06:30:17;;;;;;;14.68;9.20;;;17.80;92.80;;;;;;6216455;23;20008;-78
2021/07/22 06:32:43;;;;;;;15.57;9.13;;;17.80;92.90;;;;;;6217211;23;20088;-79
2021/07/22 06:35:09;;;;;;;14.70;10.35;;;17.80;92.60;;;;;;6217789;23;20024;-79
2021/07/22 06:37:49;;;;;;;16.08;9.55;;;17.80;92.20;;;;;;6217197;23;20008;-79
2021/07/22 06:40:15;;;;;;;18.30;10.00;;;17.80;91.80;;;;;;6218053;23;20308;-79
2021/07/22 06:42:42;;;;;;;14.43;9.27;;;17.90;91.80;;;;;;6217611;23;20374;-79
2021/07/22 06:45:08;;;;;;;18.00;9.60;;;18.00;91.90;;;;;;6166963;23;1150230;-78
2021/07/22 06:47:40;;;;;;;15.27;9.27;;;18.10;91.80;;;;;;6218657;23;20138;-78
2021/07/22 06:50:08;;;;;;;15.07;9.98;;;18.00;92.00;;;;;;6218734;23;20075;-79
2021/07/22 06:52:37;;;;;;;14.50;8.85;;;18.10;92.60;;;;;;6192524;23;20091;-79
2021/07/22 06:55:05;;;;;;;16.00;8.70;;;18.30;91.90;;;;;;6218764;23;20001;-79
2021/07/22 06:57:31;;;;;;;14.73;9.30;;;18.60;92.00;;;;;;6219029;23;20359;-79
2021/07/22 06:59:56;;;;;;;15.15;9.50;;;18.90;90.20;;;;;;6217317;23;20003;-79
2021/07/22 07:02:22;;;;;;;19.23;9.48;;;19.00;90.00;;;;;;6218933;23;20004;-79
2021/07/22 07:04:48;;;;;;;15.82;9.63;;;19.10;90.50;;;;;;6218645;23;20267;-79
2021/07/22 07:07:15;;;;;;;13.20;8.95;;;19.20;90.70;;;;;;6218752;23;20370;-79
2021/07/22 07:09:41;;;;;;;17.45;10.38;;;19.30;90.90;;;;;;6219010;23;20008;-78
2021/07/22 07:12:07;;;;;;;22.65;10.63;;;19.40;90.30;;;;;;6192333;23;20005;-78
2021/07/22 07:14:32;;;;;;;18.17;9.98;;;19.40;90.90;;;;;;6191077;23;20020;-78
2021/07/22 07:16:58;;;;;;;21.52;10.55;;;19.50;90.10;;;;;;6219617;23;20512;-78
2021/07/22 07:19:24;;;;;;;17.95;10.70;;;19.60;90.50;;;;;;6220352;23;20047;-78
2021/07/22 07:21:49;;;;;;;20.52;10.32;;;19.60;90.30;;;;;;6220787;23;20004;-78
2021/07/22 07:24:15;;;;;;;20.45;10.30;;;19.60;90.40;;;;;;6220390;23;20015;-78
2021/07/22 07:26:41;;;;;;;16.50;9.25;;;19.50;90.20;;;;;;6220701;23;20016;-79
2021/07/22 07:29:06;;;;;;;16.02;10.10;;;19.60;90.50;;;;;;6220493;23;20008;-78
2021/07/22 07:31:32;;;;;;;16.98;10.20;;;19.80;90.00;;;;;;6218966;23;20005;-79
2021/07/22 07:33:58;;;;;;;15.75;9.63;;;20.00;89.60;;;;;;6193934;23;20001;-78
2021/07/22 07:36:23;;;;;;;14.68;9.35;;;20.20;89.10;;;;;;6220487;23;20062;-78
2021/07/22 07:38:49;;;;;;;14.60;8.88;;;20.50;87.80;;;;;;6219404;23;20000;-79
2021/07/22 07:41:14;;;;;;;16.50;8.20;;;21.10;87.00;;;;;;6219614;23;20000;-78
2021/07/22 07:43:40;;;;;;;14.82;9.10;;;21.90;84.70;;;;;;6220690;23;20008;-79
2021/07/22 07:46:06;;;;;;;21.00;8.65;;;22.50;82.50;;;;;;6218382;23;20367;-79
2021/07/22 07:48:31;;;;;;;12.60;7.65;;;23.50;80.40;;;;;;6220120;23;20055;-79
2021/07/22 07:50:57;;;;;;;13.25;8.88;;;24.00;78.80;;;;;;6189645;23;20013;-79
2021/07/22 07:53:23;;;;;;;12.20;7.47;;;24.30;77.10;;;;;;6215612;23;20005;-79
2021/07/22 07:55:49;;;;;;;13.27;8.25;;;24.40;77.70;;;;;;6215557;23;20366;-79
2021/07/22 07:58:15;;;;;;;12.20;8.20;;;24.90;76.40;;;;;;6216738;23;20000;-79
2021/07/22 08:00:40;;;;;;;13.00;7.72;;;25.10;75.00;;;;;;6190340;23;20274;-79
2021/07/22 08:03:18;;;;;;;14.15;8.13;;;25.10;75.60;;;;;;6193034;23;20013;-79
2021/07/22 08:05:44;;;;;;;14.30;9.13;;;25.10;75.60;;;;;;6216024;23;20008;-78
2021/07/22 08:08:09;;;;;;;17.13;9.07;;;24.90;76.10;;;;;;6216313;23;20302;-79
2021/07/22 08:10:36;;;;;;;12.48;8.13;;;25.00;76.00;;;;;;6215451;23;20001;-79
2021/07/22 08:13:06;;;;;;;18.38;7.85;;;25.20;75.90;;;;;;6215639;23;20550;-79
2021/07/22 08:15:31;;;;;;;13.20;7.57;;;25.90;74.70;;;;;;6217923;23;20001;-78
2021/07/22 08:17:57;;;;;;;13.52;7.60;;;26.70;72.50;;;;;;6219033;23;20292;-79
2021/07/22 08:20:23;;;;;;;13.25;7.50;;;27.20;71.70;;;;;;6219896;23;20074;-79
2021/07/22 08:22:51;;;;;;;17.60;7.97;;;27.50;69.00;;;;;;6167719;23;20374;-79
2021/07/22 08:25:17;;;;;;;10.88;6.85;;;27.60;68.90;;;;;;6218925;23;20032;-79
2021/07/22 08:27:42;;;;;;;15.00;7.93;;;27.70;68.20;;;;;;6219297;23;20001;-79
2021/07/22 08:30:09;;;;;;;13.95;6.78;;;27.90;66.90;;;;;;6217954;23;20001;-79
2021/07/22 08:32:34;;;;;;;15.63;7.30;;;27.50;69.20;;;;;;6219304;23;20271;-79
2021/07/22 08:35:00;;;;;;;11.75;6.13;;;27.40;69.60;;;;;;6217758;23;20000;-79
2021/07/22 08:37:25;;;;;;;11.57;7.32;;;27.90;68.30;;;;;;6215428;23;20011;-79
2021/07/22 08:39:54;;;;;;;12.07;7.07;;;28.20;66.20;;;;;;6216197;23;20083;-79
2021/07/22 08:42:24;;;;;;;13.82;7.00;;;28.30;65.90;;;;;;6214803;23;20446;-78
2021/07/22 08:44:50;;;;;;;13.02;7.35;;;28.40;65.40;;;;;;6213245;23;20071;-79
2021/07/22 08:47:17;;;;;;;10.30;6.82;;;28.40;66.10;;;;;;6215246;23;20395;-78
2021/07/22 08:49:42;;;;;;;13.02;7.28;;;28.40;64.60;;;;;;6214709;23;20403;-79
2021/07/22 08:52:12;;;;;;;10.27;6.60;;;28.00;65.40;;;;;;6214923;23;20028;-81
2021/07/22 08:54:39;;;;;;;14.82;7.30;;;28.10;65.00;;;;;;6215235;23;20001;-79
2021/07/22 08:57:07;;;;;;;12.18;7.18;;;28.30;66.00;;;;;;6215659;23;20393;-79
2021/07/22 08:59:33;;;;;;;12.70;7.35;;;28.40;65.20;;;;;;6214011;23;20248;-80
2021/07/22 09:02:03;;;;;;;11.60;7.22;;;28.30;65.50;;;;;;6217673;23;20007;-80
2021/07/22 09:04:29;;;;;;;10.75;7.57;;;28.60;65.00;;;;;;6218186;23;20005;-79
2021/07/22 09:06:57;;;;;;;11.77;7.55;;;28.80;64.40;;;;;;6218741;23;20011;-79
2021/07/22 09:09:23;;;;;;;11.75;7.30;;;28.90;64.10;;;;;;6192634;23;20046;-79
2021/07/22 09:12:02;;;;;;;12.50;7.15;;;29.00;64.20;;;;;;6218722;23;20005;-79
2021/07/22 09:14:31;;;;;;;15.07;7.50;;;28.70;64.20;;;;;;6218016;23;20055;-79
2021/07/22 09:16:57;;;;;;;13.45;7.30;;;28.30;66.40;;;;;;6218638;23;20263;-79
2021/07/22 09:19:34;;;;;;;13.05;8.10;;;28.00;66.20;;;;;;6193518;23;20216;-79
2021/07/22 09:22:00;;;;;;;20.95;8.73;;;28.20;64.80;;;;;;6218811;23;20235;-77
2021/07/22 09:24:26;;;;;;;11.93;7.70;;;27.60;66.20;;;;;;6218469;23;20005;-79
2021/07/22 09:26:53;;;;;;;14.48;7.60;;;27.50;67.30;;;;;;6192390;23;20000;-79
2021/07/22 09:29:19;;;;;;;14.85;8.02;;;28.00;66.90;;;;;;6217890;23;20005;-79
2021/07/22 09:31:47;;;;;;;11.68;6.80;;;29.00;64.20;;;;;;6218518;23;20005;-79
2021/07/22 09:34:18;;;;;;;12.65;7.10;;;29.70;63.20;;;;;;6219028;23;20008;-79
2021/07/22 09:36:44;;;;;;;13.50;7.50;;;29.70;62.20;;;;;;6219326;23;20008;-79
2021/07/22 09:39:24;;;;;;;19.70;7.20;;;29.60;62.40;;;;;;6218351;23;20264;-79
2021/07/22 09:41:59;;;;;;;13.57;8.10;;;29.60;63.60;;;;;;6218489;23;20007;-79
2021/07/22 09:44:38;;;;;;;12.85;8.55;;;30.10;62.80;;;;;;6215765;23;20047;-79
2021/07/22 09:47:06;;;;;;;12.18;7.78;;;29.60;61.10;;;;;;6218175;23;20087;-78
2021/07/22 09:49:40;;;;;;;12.25;7.97;;;29.30;63.70;;;;;;6218275;23;20267;-79
2021/07/22 09:52:17;;;;;;;13.32;7.78;;;29.70;62.30;;;;;;6219162;23;20075;-79
2021/07/22 09:54:43;;;;;;;15.55;7.95;;;29.90;62.50;;;;;;6216900;23;20266;-79
2021/07/22 09:57:20;;;;;;;11.18;7.00;;;30.10;62.00;;;;;;6218474;23;20079;-79
2021/07/22 09:59:47;;;;;;;12.95;7.13;;;30.10;63.20;;;;;;6216430;23;20001;-79
2021/07/22 10:02:24;;;;;;;10.60;7.45;;;29.50;62.10;;;;;;6192539;23;20083;-78
2021/07/22 10:04:57;;;;;;;11.85;7.35;;;29.40;62.10;;;;;;6190946;23;20008;-79
2021/07/22 10:07:25;;;;;;;13.50;6.60;;;29.80;62.30;;;;;;6218095;23;20258;-79
2021/07/22 10:09:57;;;;;;;12.32;6.90;;;30.00;61.70;;;;;;6217778;23;20004;-79
2021/07/22 10:12:23;;;;;;;14.38;7.38;;;30.40;61.90;;;;;;6219230;23;20034;-79
2021/07/22 10:14:59;;;;;;;12.20;7.75;;;30.70;59.90;;;;;;6216813;23;20008;-79
2021/07/22 10:17:35;;;;;;;11.85;7.50;;;30.60;60.40;;;;;;6219158;23;20001;-79
2021/07/22 10:20:04;;;;;;;12.95;7.88;;;30.90;59.80;;;;;;6218925;23;19996;-78
2021/07/22 10:22:31;;;;;;;12.02;7.80;;;30.90;58.90;;;;;;6218996;23;19997;-78
2021/07/22 10:24:57;;;;;;;13.65;7.53;;;30.90;61.10;;;;;;6218954;23;20005;-79
2021/07/22 10:27:24;;;;;;;11.65;7.53;;;30.80;59.30;;;;;;6218671;23;20009;-79
2021/07/22 10:29:50;;;;;;;11.90;7.38;;;31.00;59.90;;;;;;6217788;23;20071;-78
2021/07/22 10:32:22;;;;;;;15.40;7.82;;;30.50;59.90;;;;;;6192769;23;20015;-79
2021/07/22 10:34:49;;;;;;;13.73;8.15;;;30.40;59.90;;;;;;6218585;23;20008;-78
2021/07/22 10:37:18;;;;;;;12.52;6.93;;;30.60;61.50;;;;;;6219081;23;20359;-79
2021/07/22 10:40:07;;;;;;;11.27;7.15;;;30.50;60.80;;;;;;6218364;23;20051;-78
2021/07/22 10:42:44;;;;;;;13.23;7.80;;;30.80;61.20;;;;;;6218455;23;20024;-78
2021/07/22 10:45:27;;;;;;;11.70;7.88;;;30.60;61.20;;;;;;6217385;23;20429;-78
2021/07/22 10:47:59;;;;;;;13.55;8.10;;;30.40;62.00;;;;;;6218633;23;20091;-78
2021/07/22 10:50:54;;;;;;;11.68;7.38;;;30.40;61.60;;;;;;6192589;23;20282;-76
2021/07/22 10:53:53;;;;;;;11.32;6.95;;;30.60;61.60;;;;;;6207305;23;20019;-78
2021/07/22 10:56:43;;;;;;;12.18;7.38;;;30.00;61.10;;;;;;6186959;23;20009;-78
2021/07/22 10:59:08;;;;;;;13.45;7.65;;;29.60;62.20;;;;;;6220384;23;20414;-78
2021/07/22 11:01:43;;;;;;;13.45;7.63;;;29.70;61.70;;;;;;6218191;23;20043;-79
2021/07/22 11:04:21;;;;;;;12.85;7.30;;;29.90;61.10;;;;;;6218817;23;20088;-78
2021/07/22 11:06:59;;;;;;;13.70;8.07;;;30.20;61.60;;;;;;6220644;23;20005;-78
2021/07/22 11:09:48;;;;;;;14.40;8.52;;;30.70;59.30;;;;;;6219521;23;20001;-78
2021/07/22 11:12:32;;;;;;;11.98;7.78;;;30.30;59.10;;;;;;6220467;23;20310;-78
2021/07/22 11:15:00;;;;;;;13.50;7.93;;;30.30;59.30;;;;;;6218755;23;20072;-78
2021/07/22 11:17:36;;;;;;;13.70;8.18;;;29.60;59.90;;;;;;6220370;23;20000;-78
2021/07/22 11:20:20;;;;;;;13.07;8.00;;;29.60;61.60;;;;;;6220323;23;20076;-78
2021/07/22 11:22:46;;;;;;;;;;;30.00;60.10;;;;;;6220791;23;20004;-78
2021/07/22 11:25:13;;;;;;;10.85;7.00;;;30.10;60.60;;;;;;6220600;23;19900;-78
2021/07/22 11:27:47;;;;;;;10.82;7.93;;;30.10;60.20;;;;;;6220131;23;20001;-78
2021/07/22 11:30:14;;;;;;;15.32;8.25;;;30.20;60.60;;;;;;6219019;23;20004;-79
2021/07/22 11:32:39;;;;;;;13.95;8.10;;;29.80;59.70;;;;;;6219451;23;20004;-79
2021/07/22 11:35:06;;;;;;;13.98;8.65;;;29.90;61.00;;;;;;6219762;23;20012;-78
2021/07/22 11:37:32;;;;;;;14.18;8.40;;;29.70;60.60;;;;;;6220067;23;20024;-78
2021/07/22 11:39:57;;;;;;;12.43;8.43;;;29.40;61.10;;;;;;6219420;23;20055;-78
2021/07/22 11:42:23;;;;;;;15.02;8.45;;;28.80;63.60;;;;;;6219468;23;20058;-77
2021/07/22 11:45:04;;;;;;;12.35;7.78;;;29.30;62.20;;;;;;6192415;23;20020;-77
2021/07/22 11:47:34;;;;;;;12.57;8.05;;;29.70;62.80;;;;;;6220315;23;20084;-79
2021/07/22 11:50:00;;;;;;;15.20;7.78;;;30.00;59.60;;;;;;6220635;23;20058;-79
2021/07/22 11:52:27;;;;;;;11.77;7.88;;;30.30;60.70;;;;;;6219662;23;20330;-78
2021/07/22 11:55:09;;;;;;;14.55;8.20;;;30.50;60.30;;;;;;6218141;23;20000;-78
2021/07/22 11:57:39;;;;;;;12.50;7.10;;;30.50;60.00;;;;;;6193660;23;20266;-78
2021/07/22 12:00:19;;;;;;;12.52;7.80;;;30.50;61.50;;;;;;6218594;23;20001;-78
2021/07/22 12:02:46;;;;;;;12.82;7.90;;;30.30;60.50;;;;;;6220069;23;20076;-78
2021/07/22 12:05:21;;;;;;;19.30;8.90;;;30.60;60.70;;;;;;6220074;23;20005;-78
2021/07/22 12:07:46;;;;;;;15.85;8.80;;;30.40;59.30;;;;;;6192364;23;20008;-78
2021/07/22 12:10:12;;;;;;;12.68;7.55;;;29.90;60.50;;;;;;6192137;23;20055;-78
2021/07/22 12:12:38;;;;;;;14.93;8.43;;;29.90;61.40;;;;;;6219512;23;20083;-78
2021/07/22 12:15:10;;;;;;;15.60;7.82;;;30.00;62.00;;;;;;6218435;23;20031;-78
2021/07/22 12:17:36;;;;;;;12.48;8.65;;;30.00;62.30;;;;;;6219758;23;20068;-78
2021/07/22 12:20:03;;;;;;;13.18;8.13;;;30.00;61.10;;;;;;6193718;23;20001;-78
2021/07/22 12:22:33;;;;;;;13.75;8.63;;;29.80;61.70;;;;;;6193431;23;20382;-78
2021/07/22 12:25:11;;;;;;;16.05;8.10;;;29.90;60.70;;;;;;6193051;23;20011;-78
2021/07/22 12:27:36;;;;;;;14.52;8.23;;;29.80;62.60;;;;;;6219501;23;20055;-78
2021/07/22 12:30:13;;;;;;;13.93;7.85;;;29.80;61.40;;;;;;6217662;23;20008;-78
2021/07/22 12:33:00;;;;;;;14.45;8.27;;;30.00;61.80;;;;;;6219478;23;20001;-78
2021/07/22 12:35:38;;;;;;;13.70;7.72;;;30.00;61.40;;;;;;6219032;23;20381;-78
2021/07/22 12:38:08;;;;;;;14.75;8.25;;;30.20;60.60;;;;;;6218868;23;20028;-78